Time;durP1;ratioP1;P1;durP2;ratioP2;P2;SDS_P1;SDS_P2;PMS_P1;PMS_P2;Temp;Humidity;BMP_temperature;BMP_pressure;BME280_temperature;BME280_humidity;BME280_pressure;Samples;Min_cycle;Max_cycle;Signal;HPM_P1;HPM_P2
2022/01/13 00:01:37;;;;;;;;;26.25;25.75;;;;;;;;5078163;27;45627;-65
2022/01/13 00:04:02;;;;;;;;;34.75;33.50;;;;;;;;5097512;27;45479;-64
2022/01/13 00:06:28;;;;;;;;;34.50;32.75;;;;;;;;5097740;27;45570;-62
2022/01/13 00:08:53;;;;;;;;;36.25;31.75;;;;;;;;5084262;27;45400;-62
2022/01/13 00:11:18;;;;;;;;;33.50;26.75;;;;;;;;5077121;28;45324;-63
2022/01/13 00:13:51;;;;;;;;;29.00;27.50;;;;;;;;5077906;27;45394;-65
2022/01/13 00:21:42;;;;;;;;;35.75;31.75;;;;;;;;5077491;27;45372;-64
2022/01/13 00:24:12;;;;;;;;;33.00;29.00;;;;;;;;5094573;27;45568;-61
2022/01/13 00:26:37;;;;;;;;;35.50;31.00;;;;;;;;5096245;27;45374;-64
2022/01/13 00:29:03;;;;;;;;;30.75;26.50;;;;;;;;5075620;28;47736;-64
2022/01/13 00:31:31;;;;;;;;;31.00;27.75;;;;;;;;5091738;27;45826;-64
2022/01/13 00:33:58;;;;;;;;;35.50;30.50;;;;;;;;5095940;27;45341;-61
2022/01/13 00:36:24;;;;;;;;;33.50;28.25;;;;;;;;5097721;27;45697;-61
2022/01/13 00:38:50;;;;;;;;;34.25;30.50;;;;;;;;5096682;27;45518;-61
2022/01/13 00:41:15;;;;;;;;;33.00;27.50;;;;;;;;5095506;27;45518;-63
2022/01/13 00:43:42;;;;;;;;;33.00;29.25;;;;;;;;5096222;27;45419;-63
2022/01/13 00:46:08;;;;;;;;;36.50;29.75;;;;;;;;5083216;27;45444;-63
2022/01/13 00:48:33;;;;;;;;;35.00;31.75;;;;;;;;5076400;28;45484;-64
2022/01/13 00:50:58;;;;;;;;;33.75;27.00;;;;;;;;5076805;27;45427;-61
2022/01/13 00:53:24;;;;;;;;;34.75;27.00;;;;;;;;5076808;27;45399;-61
2022/01/13 00:55:58;;;;;;;;;29.00;27.25;;;;;;;;5076952;27;45526;-64
2022/01/13 00:58:23;;;;;;;;;31.25;29.00;;;;;;;;5085897;27;45974;-63
2022/01/13 01:00:49;;;;;;;;;25.75;25.75;;;;;;;;5087279;27;45332;-64
2022/01/13 01:03:14;;;;;;;;;33.00;28.00;;;;;;;;5076611;27;45384;-61
2022/01/13 01:05:39;;;;;;;;;26.75;23.50;;;;;;;;5086770;27;45427;-63
2022/01/13 01:08:05;;;;;;;;;27.50;24.25;;;;;;;;5093655;27;45393;-63
2022/01/13 01:10:31;;;;;;;;;25.00;22.50;;;;;;;;5091971;27;45444;-63
2022/01/13 01:12:56;;;;;;;;;24.00;24.00;;;;;;;;5095531;27;45401;-63
2022/01/13 01:15:22;;;;;;;;;22.50;21.00;;;;;;;;5097020;27;45582;-64
2022/01/13 01:17:53;;;;;;;;;17.75;14.75;;;;;;;;5096782;27;46346;-63
2022/01/13 01:20:20;;;;;;;;;29.00;25.25;;;;;;;;5085337;27;45446;-63
2022/01/13 01:27:46;;;;;;;;;29.25;23.50;;;;;;;;5076332;27;45549;-63
2022/01/13 01:30:35;;;;;;;;;29.50;25.00;;;;;;;;5076417;27;45359;-64
2022/01/13 01:33:01;;;;;;;;;29.25;26.50;;;;;;;;5076813;27;45458;-65
2022/01/13 01:35:27;;;;;;;;;26.50;24.50;;;;;;;;5096474;27;45418;-64
2022/01/13 01:37:53;;;;;;;;;20.25;18.50;;;;;;;;5096160;27;45433;-63
2022/01/13 01:40:19;;;;;;;;;24.50;23.50;;;;;;;;5096003;27;45434;-63
2022/01/13 01:42:46;;;;;;;;;20.50;18.00;;;;;;;;5096511;27;45525;-63
2022/01/13 01:45:12;;;;;;;;;22.50;21.00;;;;;;;;5095866;27;45349;-65
2022/01/13 01:47:37;;;;;;;;;28.25;24.25;;;;;;;;5093198;27;46086;-63
2022/01/13 01:50:11;;;;;;;;;22.75;20.00;;;;;;;;5075774;27;45481;-61
2022/01/13 01:52:37;;;;;;;;;23.00;20.50;;;;;;;;5075726;27;45478;-64
2022/01/13 01:55:03;;;;;;;;;19.50;18.50;;;;;;;;5075470;28;45408;-61
2022/01/13 01:57:28;;;;;;;;;21.00;19.50;;;;;;;;5074288;28;48088;-64
2022/01/13 01:59:55;;;;;;;;;24.75;20.00;;;;;;;;5075871;28;45499;-63
2022/01/13 02:02:21;;;;;;;;;28.75;22.00;;;;;;;;5077121;27;45445;-64
2022/01/13 02:04:47;;;;;;;;;22.75;21.25;;;;;;;;5075888;27;45623;-62
2022/01/13 02:07:13;;;;;;;;;21.25;20.00;;;;;;;;5075261;27;45927;-61
2022/01/13 02:09:42;;;;;;;;;22.00;20.00;;;;;;;;5075976;27;45465;-61
2022/01/13 02:12:12;;;;;;;;;23.25;19.50;;;;;;;;5075673;28;45357;-62
2022/01/13 02:14:55;;;;;;;;;22.00;19.75;;;;;;;;5075667;27;45423;-61
2022/01/13 02:17:26;;;;;;;;;13.75;13.25;;;;;;;;5073368;27;46898;-62
2022/01/13 02:19:53;;;;;;;;;18.75;18.00;;;;;;;;5074288;28;45434;-61
2022/01/13 02:22:18;;;;;;;;;24.50;18.50;;;;;;;;5075736;27;45316;-62
2022/01/13 02:24:43;;;;;;;;;22.00;18.50;;;;;;;;5075541;27;45355;-64
2022/01/13 02:27:08;;;;;;;;;19.75;18.25;;;;;;;;5075585;27;45574;-62
2022/01/13 02:29:34;;;;;;;;;27.00;21.25;;;;;;;;5075169;27;45475;-63
2022/01/13 02:31:59;;;;;;;;;15.25;14.00;;;;;;;;5090257;27;45518;-64
2022/01/13 02:34:24;;;;;;;;;14.75;14.75;;;;;;;;5094310;27;45432;-61
2022/01/13 02:36:52;;;;;;;;;22.25;20.50;;;;;;;;5095792;27;45963;-64
2022/01/13 02:39:17;;;;;;;;;20.25;16.75;;;;;;;;5077453;27;45486;-60
2022/01/13 02:41:44;;;;;;;;;22.50;17.50;;;;;;;;5075379;27;45371;-61
2022/01/13 02:44:15;;;;;;;;;21.00;19.25;;;;;;;;5075667;27;45523;-61
2022/01/13 02:49:07;;;;;;;;;18.00;16.00;;;;;;;;5075157;28;45445;-63
2022/01/13 02:51:33;;;;;;;;;18.75;17.75;;;;;;;;5074944;27;45406;-62
2022/01/13 02:53:58;;;;;;;;;19.00;17.75;;;;;;;;5079351;27;45459;-64
2022/01/13 02:56:24;;;;;;;;;22.75;19.75;;;;;;;;5086443;27;46157;-64
2022/01/13 02:58:49;;;;;;;;;26.75;26.50;;;;;;;;5082720;27;45567;-61
2022/01/13 03:01:15;;;;;;;;;22.00;18.75;;;;;;;;5077148;28;45604;-65
2022/01/13 03:03:41;;;;;;;;;21.00;21.00;;;;;;;;5078791;27;45508;-61
2022/01/13 03:06:11;;;;;;;;;16.00;16.00;;;;;;;;5078984;28;46071;-62
2022/01/13 03:08:37;;;;;;;;;16.50;14.75;;;;;;;;5082633;27;45521;-63
2022/01/13 03:11:03;;;;;;;;;18.00;18.00;;;;;;;;5078775;27;45424;-64
2022/01/13 03:13:29;;;;;;;;;19.25;16.00;;;;;;;;5078134;27;45480;-63
2022/01/13 03:15:54;;;;;;;;;15.75;15.75;;;;;;;;5078950;27;45430;-61
2022/01/13 03:18:20;;;;;;;;;17.25;16.50;;;;;;;;5079164;27;45323;-61
2022/01/13 03:20:45;;;;;;;;;17.25;15.50;;;;;;;;5088434;27;45365;-64
2022/01/13 03:23:15;;;;;;;;;17.25;16.25;;;;;;;;5084373;27;45531;-61
2022/01/13 03:25:43;;;;;;;;;20.75;17.25;;;;;;;;5078612;27;45440;-63
2022/01/13 03:28:14;;;;;;;;;21.00;18.00;;;;;;;;5086478;27;45459;-64
2022/01/13 03:30:39;;;;;;;;;15.50;14.25;;;;;;;;5098841;27;45552;-61
2022/01/13 03:33:06;;;;;;;;;18.00;14.50;;;;;;;;5088814;27;45417;-63
2022/01/13 03:35:31;;;;;;;;;17.00;15.25;;;;;;;;5077747;27;45413;-63
2022/01/13 03:37:58;;;;;;;;;19.50;19.50;;;;;;;;5081352;27;45450;-63
2022/01/13 03:40:23;;;;;;;;;17.00;17.00;;;;;;;;5091253;27;45582;-62
2022/01/13 03:42:52;;;;;;;;;20.50;18.25;;;;;;;;5080798;27;45532;-64
2022/01/13 03:45:17;;;;;;;;;17.75;15.50;;;;;;;;5077501;27;46345;-64
2022/01/13 03:47:43;;;;;;;;;20.00;18.75;;;;;;;;5077971;27;45298;-64
2022/01/13 03:50:08;;;;;;;;;20.50;20.00;;;;;;;;5094240;27;45349;-63
2022/01/13 03:52:33;;;;;;;;;17.00;15.00;;;;;;;;5097045;27;45629;-61
2022/01/13 03:55:17;;;;;;;;;13.75;12.50;;;;;;;;5098480;27;45888;-64
2022/01/13 03:58:01;;;;;;;;;19.00;14.50;;;;;;;;5098262;27;45353;-60
2022/01/13 04:00:58;;;;;;;;;14.50;13.25;;;;;;;;5083520;27;45496;-66
2022/01/13 04:03:23;;;;;;;;;17.75;17.00;;;;;;;;5077600;28;45358;-64
2022/01/13 04:06:09;;;;;;;;;17.75;17.00;;;;;;;;5077576;27;46172;-64
2022/01/13 04:08:34;;;;;;;;;16.75;14.50;;;;;;;;5076035;28;45852;-65
2022/01/13 04:11:00;;;;;;;;;16.50;15.00;;;;;;;;5077723;27;45364;-62
2022/01/13 04:13:47;;;;;;;;;17.25;15.50;;;;;;;;5078128;28;45570;-62
2022/01/13 04:16:13;;;;;;;;;17.75;12.50;;;;;;;;5087342;27;45384;-64
2022/01/13 04:18:38;;;;;;;;;19.50;17.75;;;;;;;;5097405;27;45484;-61
2022/01/13 04:21:03;;;;;;;;;15.50;13.00;;;;;;;;5098168;27;45496;-62
2022/01/13 04:23:29;;;;;;;;;13.50;13.50;;;;;;;;5098153;27;45505;-62
2022/01/13 04:25:54;;;;;;;;;16.50;14.25;;;;;;;;5097877;27;45420;-60
2022/01/13 04:28:26;;;;;;;;;19.00;17.25;;;;;;;;5097866;27;45491;-63
2022/01/13 04:30:53;;;;;;;;;16.75;15.75;;;;;;;;5091278;27;45464;-61
2022/01/13 04:33:18;;;;;;;;;16.25;14.00;;;;;;;;5076203;28;45465;-64
2022/01/13 04:35:44;;;;;;;;;14.00;13.00;;;;;;;;5077220;28;45420;-64
2022/01/13 04:38:09;;;;;;;;;16.75;14.50;;;;;;;;5077548;28;45450;-61
2022/01/13 04:40:36;;;;;;;;;13.75;13.75;;;;;;;;5077499;27;45303;-63
2022/01/13 04:43:01;;;;;;;;;13.75;13.75;;;;;;;;5076066;28;45358;-64
2022/01/13 04:45:27;;;;;;;;;14.00;14.00;;;;;;;;5077974;27;46360;-61
2022/01/13 04:47:53;;;;;;;;;16.50;15.50;;;;;;;;5077163;27;45386;-62
2022/01/13 04:50:18;;;;;;;;;18.75;14.75;;;;;;;;5077281;27;45357;-60
2022/01/13 04:52:43;;;;;;;;;16.00;13.25;;;;;;;;5076827;28;45477;-63
2022/01/13 04:55:11;;;;;;;;;17.50;17.50;;;;;;;;5078088;27;45515;-61
2022/01/13 04:57:36;;;;;;;;;16.75;14.75;;;;;;;;5076856;28;45469;-62
2022/01/13 05:00:03;;;;;;;;;13.00;13.00;;;;;;;;5077074;27;45483;-64
2022/01/13 05:02:28;;;;;;;;;16.50;16.50;;;;;;;;5076393;27;45676;-64
2022/01/13 05:04:54;;;;;;;;;13.00;13.00;;;;;;;;5076879;27;45449;-63
2022/01/13 05:07:19;;;;;;;;;14.50;13.50;;;;;;;;5078328;27;45471;-61
2022/01/13 05:09:44;;;;;;;;;14.75;14.75;;;;;;;;5095979;27;45549;-64
2022/01/13 05:12:09;;;;;;;;;17.50;15.75;;;;;;;;5097565;27;45584;-61
2022/01/13 05:14:34;;;;;;;;;16.25;14.50;;;;;;;;5096961;27;45496;-63
2022/01/13 05:17:10;;;;;;;;;15.50;14.00;;;;;;;;5096459;27;45466;-61
2022/01/13 05:19:46;;;;;;;;;15.00;15.00;;;;;;;;5096153;27;45418;-61
2022/01/13 05:24:36;;;;;;;;;14.50;12.25;;;;;;;;5076126;27;45428;-62
2022/01/13 05:27:02;;;;;;;;;16.75;16.75;;;;;;;;5075300;28;45367;-60
2022/01/13 05:29:27;;;;;;;;;18.00;16.25;;;;;;;;5076982;28;45411;-64
2022/01/13 05:31:52;;;;;;;;;16.00;15.75;;;;;;;;5092745;27;45801;-63
2022/01/13 05:34:18;;;;;;;;;15.50;14.75;;;;;;;;5095174;27;45364;-62
2022/01/13 05:36:43;;;;;;;;;15.75;13.00;;;;;;;;5096340;27;45382;-62
2022/01/13 05:39:10;;;;;;;;;11.75;10.00;;;;;;;;5096825;27;45669;-64
2022/01/13 05:41:35;;;;;;;;;15.50;15.50;;;;;;;;5097009;27;45412;-61
2022/01/13 05:44:00;;;;;;;;;14.00;14.00;;;;;;;;5096672;27;45438;-62
2022/01/13 05:46:26;;;;;;;;;15.50;13.00;;;;;;;;5079934;27;45460;-61
2022/01/13 05:48:51;;;;;;;;;15.00;13.25;;;;;;;;5076371;27;45406;-61
2022/01/13 05:51:16;;;;;;;;;21.25;17.25;;;;;;;;5087602;27;45520;-64
2022/01/13 05:53:41;;;;;;;;;15.25;10.50;;;;;;;;5096728;27;45453;-63
2022/01/13 05:56:07;;;;;;;;;15.50;13.50;;;;;;;;5096930;27;45525;-63
2022/01/13 05:58:32;;;;;;;;;15.00;13.25;;;;;;;;5083658;27;45358;-61
2022/01/13 06:00:57;;;;;;;;;19.25;14.50;;;;;;;;5076487;27;45640;-63
2022/01/13 06:03:22;;;;;;;;;16.75;15.25;;;;;;;;5077130;27;45403;-62
2022/01/13 06:05:48;;;;;;;;;19.25;18.00;;;;;;;;5081958;27;45451;-61
2022/01/13 06:08:13;;;;;;;;;13.25;13.25;;;;;;;;5096084;27;45399;-62
2022/01/13 06:10:43;;;;;;;;;17.25;12.75;;;;;;;;5096409;27;45342;-62
2022/01/13 06:13:08;;;;;;;;;13.25;10.75;;;;;;;;5094571;27;45489;-61
2022/01/13 06:15:35;;;;;;;;;14.50;12.00;;;;;;;;5096224;27;45449;-63
2022/01/13 06:18:00;;;;;;;;;20.75;15.50;;;;;;;;5096693;27;45404;-63
2022/01/13 06:20:25;;;;;;;;;19.50;17.50;;;;;;;;5095975;27;45503;-61
2022/01/13 06:22:51;;;;;;;;;16.25;16.25;;;;;;;;5086172;27;45470;-63
2022/01/13 06:25:16;;;;;;;;;14.50;14.25;;;;;;;;5075995;28;45457;-61
2022/01/13 06:27:42;;;;;;;;;20.25;14.00;;;;;;;;5077928;27;45436;-62
2022/01/13 06:30:09;;;;;;;;;17.25;14.50;;;;;;;;5079170;27;45555;-63
2022/01/13 06:32:35;;;;;;;;;18.50;15.25;;;;;;;;5087160;27;45468;-60
2022/01/13 06:35:00;;;;;;;;;16.75;16.25;;;;;;;;5079580;27;45308;-63
2022/01/13 06:37:25;;;;;;;;;16.75;16.50;;;;;;;;5084317;27;45454;-64
2022/01/13 06:39:50;;;;;;;;;15.75;15.25;;;;;;;;5120328;27;45604;-61
2022/01/13 06:42:17;;;;;;;;;20.50;20.50;;;;;;;;5111006;27;45376;-64
2022/01/13 06:44:43;;;;;;;;;14.00;14.00;;;;;;;;5099520;27;45396;-62
2022/01/13 06:47:08;;;;;;;;;16.75;16.50;;;;;;;;5099080;27;45428;-64
2022/01/13 06:49:33;;;;;;;;;21.75;18.00;;;;;;;;5099657;27;45397;-64
2022/01/13 06:51:59;;;;;;;;;21.75;15.75;;;;;;;;5097384;27;46483;-64
2022/01/13 06:54:24;;;;;;;;;21.25;19.75;;;;;;;;5077549;28;45473;-64
2022/01/13 06:56:50;;;;;;;;;16.75;15.75;;;;;;;;5079144;27;45432;-64
2022/01/13 06:59:16;;;;;;;;;21.50;20.25;;;;;;;;5078677;27;45409;-63
2022/01/13 07:01:42;;;;;;;;;19.00;17.00;;;;;;;;5079333;27;45513;-65
2022/01/13 07:04:12;;;;;;;;;20.75;17.75;;;;;;;;5079808;27;45432;-61
2022/01/13 07:06:38;;;;;;;;;19.75;13.50;;;;;;;;5096181;27;45466;-62
2022/01/13 07:09:05;;;;;;;;;18.50;17.00;;;;;;;;5117434;27;45624;-64
2022/01/13 07:11:30;;;;;;;;;25.25;21.50;;;;;;;;5088199;27;46066;-62
2022/01/13 07:13:55;;;;;;;;;18.75;17.00;;;;;;;;5114385;27;45426;-62
2022/01/13 07:16:21;;;;;;;;;21.00;21.00;;;;;;;;5102771;27;45349;-63
2022/01/13 07:18:46;;;;;;;;;18.75;18.75;;;;;;;;5118220;27;45551;-62
2022/01/13 07:21:12;;;;;;;;;20.50;18.50;;;;;;;;5107035;27;46158;-61
2022/01/13 07:23:38;;;;;;;;;22.75;21.00;;;;;;;;5098997;27;45429;-61
2022/01/13 07:26:03;;;;;;;;;16.00;15.00;;;;;;;;5106674;27;45495;-63
2022/01/13 07:28:29;;;;;;;;;22.25;17.00;;;;;;;;5099028;27;45555;-62
2022/01/13 07:30:54;;;;;;;;;17.50;17.50;;;;;;;;5098061;27;45719;-64
2022/01/13 07:33:20;;;;;;;;;18.25;16.00;;;;;;;;5098197;27;45684;-64
2022/01/13 07:35:45;;;;;;;;;20.75;18.00;;;;;;;;5096066;27;45619;-63
2022/01/13 07:38:10;;;;;;;;;28.50;23.25;;;;;;;;5078060;28;45394;-63
2022/01/13 07:40:35;;;;;;;;;24.00;20.00;;;;;;;;5078042;27;45386;-65
2022/01/13 07:43:00;;;;;;;;;20.25;20.00;;;;;;;;5079348;27;45414;-60
2022/01/13 07:45:26;;;;;;;;;20.25;18.50;;;;;;;;5078252;28;45411;-60
2022/01/13 07:47:51;;;;;;;;;25.75;25.75;;;;;;;;5077527;27;45355;-61
2022/01/13 07:50:16;;;;;;;;;17.00;17.00;;;;;;;;5076111;28;45410;-61
2022/01/13 07:52:42;;;;;;;;;20.50;20.00;;;;;;;;5077570;27;45440;-61
2022/01/13 07:55:07;;;;;;;;;20.25;18.25;;;;;;;;5077919;27;45731;-60
2022/01/13 07:57:32;;;;;;;;;23.75;20.25;;;;;;;;5077646;27;45448;-60
2022/01/13 07:59:58;;;;;;;;;24.75;20.50;;;;;;;;5077494;27;45292;-60
2022/01/13 08:02:23;;;;;;;;;18.75;18.75;;;;;;;;5077536;28;45398;-60
2022/01/13 08:04:49;;;;;;;;;28.25;23.00;;;;;;;;5077848;27;45434;-61
2022/01/13 08:07:14;;;;;;;;;23.25;20.00;;;;;;;;5077547;27;45429;-61
2022/01/13 08:09:39;;;;;;;;;30.50;25.50;;;;;;;;5076729;27;46098;-61
2022/01/13 08:12:05;;;;;;;;;20.50;18.25;;;;;;;;5077354;27;45484;-60
2022/01/13 08:14:30;;;;;;;;;24.25;21.50;;;;;;;;5077531;27;45832;-60
2022/01/13 08:16:59;;;;;;;;;25.25;23.50;;;;;;;;5077726;27;45550;-60
2022/01/13 08:22:08;;;;;;;;;21.50;20.25;;;;;;;;5077394;28;45460;-60
2022/01/13 08:24:33;;;;;;;;;21.50;20.00;;;;;;;;5077864;27;45409;-60
2022/01/13 08:26:58;;;;;;;;;29.50;23.50;;;;;;;;5077515;27;45345;-60
2022/01/13 08:29:23;;;;;;;;;29.75;23.50;;;;;;;;5077156;27;45428;-60
2022/01/13 08:31:49;;;;;;;;;24.50;22.00;;;;;;;;5076740;27;45412;-61
2022/01/13 08:34:16;;;;;;;;;19.50;17.25;;;;;;;;5076200;28;45448;-60
2022/01/13 08:36:41;;;;;;;;;18.25;18.00;;;;;;;;5075882;28;45327;-60
2022/01/13 08:39:06;;;;;;;;;24.00;22.00;;;;;;;;5076972;27;46065;-60
2022/01/13 08:41:31;;;;;;;;;26.75;22.25;;;;;;;;5075452;28;45377;-60
2022/01/13 08:43:57;;;;;;;;;23.25;22.25;;;;;;;;5077106;27;45339;-62
2022/01/13 08:46:23;;;;;;;;;23.75;22.25;;;;;;;;5077299;28;45304;-61
2022/01/13 08:48:48;;;;;;;;;23.50;18.75;;;;;;;;5077070;28;45361;-61
2022/01/13 08:51:17;;;;;;;;;22.75;21.25;;;;;;;;5075535;27;45472;-61
2022/01/13 08:53:42;;;;;;;;;23.25;22.00;;;;;;;;5076580;28;45466;-61
2022/01/13 08:56:07;;;;;;;;;28.25;21.00;;;;;;;;5075589;28;45463;-61
2022/01/13 08:58:33;;;;;;;;;28.75;27.00;;;;;;;;5076730;27;46019;-61
2022/01/13 09:00:58;;;;;;;;;21.25;17.75;;;;;;;;5076948;27;45409;-61
2022/01/13 09:03:24;;;;;;;;;25.50;25.00;;;;;;;;5076709;27;45530;-61
2022/01/13 09:05:49;;;;;;;;;25.50;21.50;;;;;;;;5076157;27;45590;-62
2022/01/13 09:08:14;;;;;;;;;23.25;21.00;;;;;;;;5076428;27;46292;-61
2022/01/13 09:10:41;;;;;;;;;29.75;22.50;;;;;;;;5076256;28;45505;-61
2022/01/13 09:13:07;;;;;;;;;35.50;28.00;;;;;;;;5075557;27;45403;-61
2022/01/13 09:15:38;;;;;;;;;22.75;22.75;;;;;;;;5076032;27;45448;-60
2022/01/13 09:18:14;;;;;;;;;32.50;30.75;;;;;;;;5074720;28;48063;-60
2022/01/13 09:20:40;;;;;;;;;23.00;22.00;;;;;;;;5075070;28;45451;-60
2022/01/13 09:23:06;;;;;;;;;29.75;26.25;;;;;;;;5076657;27;45354;-61
2022/01/13 09:25:31;;;;;;;;;32.25;25.75;;;;;;;;5076517;27;45370;-61
2022/01/13 09:27:56;;;;;;;;;34.75;27.00;;;;;;;;5076163;27;45405;-61
2022/01/13 09:30:22;;;;;;;;;27.50;26.00;;;;;;;;5076536;28;45346;-61
2022/01/13 09:32:47;;;;;;;;;31.50;29.75;;;;;;;;5076705;28;45304;-61
2022/01/13 09:35:13;;;;;;;;;36.00;31.75;;;;;;;;5076415;27;45383;-61
2022/01/13 09:37:38;;;;;;;;;38.50;30.00;;;;;;;;5075535;27;48087;-61
2022/01/13 09:40:05;;;;;;;;;35.25;33.00;;;;;;;;5076423;28;45299;-61
2022/01/13 09:42:32;;;;;;;;;37.00;29.00;;;;;;;;5076283;27;45523;-61
2022/01/13 09:44:59;;;;;;;;;33.00;31.50;;;;;;;;5076486;27;45497;-61
2022/01/13 09:47:25;;;;;;;;;28.50;26.75;;;;;;;;5075782;28;45469;-61
2022/01/13 09:49:50;;;;;;;;;36.50;30.25;;;;;;;;5075835;28;45409;-61
2022/01/13 09:52:16;;;;;;;;;35.00;34.75;;;;;;;;5076221;27;45484;-61
2022/01/13 09:54:41;;;;;;;;;34.00;30.50;;;;;;;;5075005;28;45520;-61
2022/01/13 09:57:07;;;;;;;;;24.50;24.50;;;;;;;;5075912;28;45398;-61
2022/01/13 09:59:32;;;;;;;;;26.75;22.75;;;;;;;;5075689;27;45389;-61
2022/01/13 10:01:58;;;;;;;;;26.25;24.50;;;;;;;;5075772;27;45480;-61
2022/01/13 10:04:23;;;;;;;;;22.00;17.75;;;;;;;;5076272;27;45309;-61
2022/01/13 10:06:48;;;;;;;;;28.50;27.75;;;;;;;;5076049;28;45415;-64
2022/01/13 10:09:14;;;;;;;;;33.25;26.75;;;;;;;;5076015;27;45370;-61
2022/01/13 10:11:44;;;;;;;;;26.50;23.50;;;;;;;;5075167;27;45524;-62
2022/01/13 10:16:23;;;;;;;;;34.50;31.50;;;;;;;;5075898;27;45354;-61
2022/01/13 10:17:07;;;;;;;;;32.00;29.50;;;;;;;;5075481;28;45428;-61
2022/01/13 10:19:36;;;;;;;;;35.00;31.50;;;;;;;;5075601;27;45462;-61
2022/01/13 10:22:04;;;;;;;;;33.50;31.25;;;;;;;;5075317;27;45405;-61
2022/01/13 10:24:30;;;;;;;;;30.25;26.50;;;;;;;;5075649;27;45511;-61
2022/01/13 10:27:10;;;;;;;;;32.00;30.75;;;;;;;;5075828;27;45396;-61
2022/01/13 10:29:40;;;;;;;;;31.75;27.50;;;;;;;;5075692;27;45489;-61
2022/01/13 10:32:06;;;;;;;;;29.00;27.25;;;;;;;;5075180;27;45442;-62
2022/01/13 10:34:32;;;;;;;;;34.50;30.25;;;;;;;;5075676;27;45425;-61
2022/01/13 10:37:07;;;;;;;;;34.00;31.50;;;;;;;;5075446;28;46277;-61
2022/01/13 10:39:52;;;;;;;;;36.50;33.50;;;;;;;;5074252;28;45382;-61
2022/01/13 10:45:22;;;;;;;;;33.50;29.25;;;;;;;;5075273;28;45607;-61
2022/01/13 10:47:51;;;;;;;;;32.00;27.00;;;;;;;;5075047;27;45435;-61
2022/01/13 10:50:17;;;;;;;;;33.75;29.75;;;;;;;;5075223;27;45463;-62
2022/01/13 10:52:42;;;;;;;;;30.00;27.25;;;;;;;;5075429;27;45409;-61
2022/01/13 10:55:10;;;;;;;;;26.75;23.50;;;;;;;;5074754;27;45452;-61
2022/01/13 10:57:36;;;;;;;;;34.75;31.00;;;;;;;;5075397;27;46094;-61
2022/01/13 11:00:17;;;;;;;;;35.25;33.50;;;;;;;;5075393;27;45436;-61
2022/01/13 11:02:43;;;;;;;;;36.75;33.50;;;;;;;;5075320;27;45420;-61
2022/01/13 11:05:10;;;;;;;;;34.75;32.00;;;;;;;;5074838;27;45604;-61
2022/01/13 11:07:36;;;;;;;;;36.00;34.50;;;;;;;;5073967;28;46296;-61
2022/01/13 11:10:04;;;;;;;;;38.75;35.25;;;;;;;;5074961;27;45399;-62
2022/01/13 11:12:31;;;;;;;;;30.50;29.25;;;;;;;;5073886;28;45447;-61
2022/01/13 11:15:03;;;;;;;;;44.50;35.00;;;;;;;;5077451;27;45422;-61
2022/01/13 11:17:28;;;;;;;;;38.00;35.50;;;;;;;;5076493;28;45481;-62
2022/01/13 11:19:54;;;;;;;;;68.75;54.50;;;;;;;;5078520;27;45319;-62
2022/01/13 11:22:21;;;;;;;;;37.50;36.25;;;;;;;;5078819;28;45404;-62
2022/01/13 11:24:46;;;;;;;;;41.00;35.25;;;;;;;;5078673;27;45430;-61
2022/01/13 11:27:14;;;;;;;;;39.00;37.00;;;;;;;;5077426;28;46271;-60
2022/01/13 11:29:40;;;;;;;;;41.75;33.75;;;;;;;;5078544;27;45545;-61
2022/01/13 11:32:07;;;;;;;;;35.25;30.75;;;;;;;;5078596;27;45487;-61
2022/01/13 11:34:32;;;;;;;;;40.50;38.50;;;;;;;;5078564;27;45530;-62
2022/01/13 11:36:58;;;;;;;;;38.50;33.75;;;;;;;;5077995;27;46038;-61
2022/01/13 11:39:35;;;;;;;;;38.00;35.00;;;;;;;;5077980;27;45437;-61
2022/01/13 11:42:04;;;;;;;;;40.75;33.25;;;;;;;;5078648;27;45729;-62
2022/01/13 11:44:29;;;;;;;;;43.25;34.00;;;;;;;;5078339;27;45523;-62
2022/01/13 11:46:55;;;;;;;;;40.50;36.00;;;;;;;;5077927;27;45490;-61
2022/01/13 11:49:33;;;;;;;;;39.50;34.75;;;;;;;;5077738;27;45565;-61
2022/01/13 11:52:01;;;;;;;;;36.25;33.25;;;;;;;;5078389;27;45480;-62
2022/01/13 11:54:31;;;;;;;;;41.75;35.00;;;;;;;;5078265;27;45465;-61
2022/01/13 11:57:09;;;;;;;;;41.75;37.75;;;;;;;;5081031;27;45745;-61
2022/01/13 11:59:34;;;;;;;;;39.75;35.25;;;;;;;;5087334;27;45415;-61
2022/01/13 12:02:18;;;;;;;;;41.25;35.25;;;;;;;;5089116;27;45375;-62
2022/01/13 12:04:59;;;;;;;;;37.50;33.50;;;;;;;;5086868;27;45344;-61
2022/01/13 12:07:38;;;;;;;;;40.00;34.50;;;;;;;;5083131;27;46017;-62
2022/01/13 12:10:05;;;;;;;;;47.25;39.25;;;;;;;;5090580;27;45568;-60
2022/01/13 12:12:32;;;;;;;;;47.50;41.50;;;;;;;;5077905;27;45516;-62
2022/01/13 12:15:14;;;;;;;;;44.50;39.00;;;;;;;;5077749;27;45370;-62
2022/01/13 12:17:48;;;;;;;;;36.00;32.75;;;;;;;;5078345;27;45386;-62
2022/01/13 12:20:21;;;;;;;;;41.75;39.50;;;;;;;;5083731;27;45731;-62
2022/01/13 12:22:55;;;;;;;;;42.25;30.75;;;;;;;;5117612;27;45338;-62
2022/01/13 12:25:21;;;;;;;;;43.75;39.75;;;;;;;;5109740;27;45528;-64
2022/01/13 12:27:50;;;;;;;;;43.25;39.00;;;;;;;;5097267;27;46340;-62
2022/01/13 12:30:34;;;;;;;;;43.75;37.00;;;;;;;;5097573;27;45465;-61
2022/01/13 12:33:01;;;;;;;;;42.50;35.75;;;;;;;;5097484;27;45445;-61
2022/01/13 12:35:29;;;;;;;;;41.25;35.00;;;;;;;;5097514;27;45547;-61
2022/01/13 12:37:59;;;;;;;;;41.25;35.75;;;;;;;;5097726;27;45474;-61
2022/01/13 12:40:25;;;;;;;;;44.50;38.25;;;;;;;;5097691;27;45444;-61
2022/01/13 12:42:54;;;;;;;;;41.75;39.50;;;;;;;;5097848;27;45449;-62
2022/01/13 12:45:28;;;;;;;;;31.25;27.25;;;;;;;;5097212;27;45443;-59
2022/01/13 12:47:53;;;;;;;;;57.75;47.25;;;;;;;;5097280;27;46282;-60
2022/01/13 12:50:38;;;;;;;;;43.50;38.75;;;;;;;;5097526;27;45464;-60
2022/01/13 12:53:09;;;;;;;;;55.50;44.75;;;;;;;;5097577;27;45428;-60
2022/01/13 12:55:35;;;;;;;;;55.25;45.75;;;;;;;;5096946;27;45417;-61
2022/01/13 12:58:01;;;;;;;;;48.25;40.50;;;;;;;;5097357;27;45505;-60
2022/01/13 13:00:26;;;;;;;;;50.00;42.50;;;;;;;;5095849;27;45824;-61
2022/01/13 13:02:53;;;;;;;;;39.50;38.00;;;;;;;;5097476;27;45436;-61
2022/01/13 13:05:29;;;;;;;;;51.25;43.50;;;;;;;;5095591;27;45389;-61
2022/01/13 13:07:54;;;;;;;;;47.50;42.00;;;;;;;;5097196;27;46535;-61
2022/01/13 13:10:19;;;;;;;;;46.25;41.00;;;;;;;;5096976;27;45357;-61
2022/01/13 13:12:50;;;;;;;;;39.50;32.00;;;;;;;;5097412;27;45479;-61
2022/01/13 13:17:45;;;;;;;;;35.75;34.00;;;;;;;;5096438;27;45891;-61
2022/01/13 13:20:30;;;;;;;;;47.00;39.00;;;;;;;;5096895;27;45555;-60
2022/01/13 13:22:58;;;;;;;;;39.50;36.50;;;;;;;;5096582;27;45468;-61
2022/01/13 13:25:27;;;;;;;;;37.25;34.50;;;;;;;;5097079;27;45421;-60
2022/01/13 13:27:52;;;;;;;;;45.50;39.25;;;;;;;;5096308;27;45452;-61
2022/01/13 13:30:18;;;;;;;;;41.00;39.50;;;;;;;;5096837;27;45416;-61
2022/01/13 13:32:49;;;;;;;;;38.25;37.25;;;;;;;;5096575;27;45647;-62
2022/01/13 13:35:15;;;;;;;;;34.50;32.50;;;;;;;;5097239;27;45554;-61
2022/01/13 13:37:47;;;;;;;;;39.25;34.25;;;;;;;;5096008;27;46609;-61
2022/01/13 13:40:22;;;;;;;;;42.00;37.25;;;;;;;;5094392;27;45427;-62
2022/01/13 13:43:06;;;;;;;;;46.00;39.00;;;;;;;;5096867;27;45371;-60
2022/01/13 13:45:31;;;;;;;;;44.25;38.75;;;;;;;;5097103;27;45389;-61
2022/01/13 13:47:56;;;;;;;;;35.75;28.75;;;;;;;;5096475;27;46125;-61
2022/01/13 13:50:22;;;;;;;;;43.50;38.00;;;;;;;;5096073;27;45361;-61
2022/01/13 13:52:48;;;;;;;;;41.50;40.00;;;;;;;;5096626;27;45364;-61
2022/01/13 13:55:13;;;;;;;;;37.75;34.50;;;;;;;;5096637;27;45350;-60
2022/01/13 13:57:39;;;;;;;;;37.50;37.25;;;;;;;;5096483;27;45356;-61
2022/01/13 14:00:08;;;;;;;;;45.00;39.75;;;;;;;;5096686;27;45377;-61
2022/01/13 14:02:36;;;;;;;;;40.50;39.00;;;;;;;;5095936;27;45425;-60
2022/01/13 14:05:04;;;;;;;;;43.50;40.00;;;;;;;;5096398;27;45358;-61
2022/01/13 14:07:43;;;;;;;;;38.75;35.50;;;;;;;;5096124;27;45463;-61
2022/01/13 14:10:15;;;;;;;;;40.00;36.25;;;;;;;;5095775;27;45550;-61
2022/01/13 14:12:45;;;;;;;;;39.25;35.75;;;;;;;;5095894;27;45436;-61
2022/01/13 14:15:11;;;;;;;;;39.50;36.75;;;;;;;;5096179;27;45504;-61
2022/01/13 14:17:37;;;;;;;;;40.00;34.75;;;;;;;;5095681;27;45984;-61
2022/01/13 14:20:09;;;;;;;;;44.00;41.00;;;;;;;;5095984;27;45311;-60
2022/01/13 14:22:35;;;;;;;;;36.00;36.00;;;;;;;;5094266;27;45494;-61
2022/01/13 14:25:01;;;;;;;;;40.25;36.75;;;;;;;;5095903;27;45534;-60
2022/01/13 14:27:27;;;;;;;;;38.25;38.00;;;;;;;;5096068;27;45880;-60
2022/01/13 14:29:52;;;;;;;;;45.50;41.25;;;;;;;;5096157;27;45535;-61
2022/01/13 14:32:20;;;;;;;;;40.75;34.75;;;;;;;;5088146;27;45475;-61
2022/01/13 14:34:47;;;;;;;;;42.50;37.75;;;;;;;;5080697;27;45398;-61
2022/01/13 14:37:13;;;;;;;;;48.75;43.00;;;;;;;;5078887;27;45594;-61
2022/01/13 14:39:40;;;;;;;;;35.00;35.00;;;;;;;;5091907;27;45485;-57
2022/01/13 14:42:10;;;;;;;;;40.00;37.25;;;;;;;;5091562;27;45506;-60